Time;durP1;ratioP1;P1;durP2;ratioP2;P2;SDS_P1;SDS_P2;PMS_P1;PMS_P2;Temp;Humidity;BMP_temperature;BMP_pressure;BME280_temperature;BME280_humidity;BME280_pressure;Samples;Min_cycle;Max_cycle;Signal;HPM_P1;HPM_P2
2023/03/02 00:02:14;;;;;;;2.67;2.47;;;15.70;49.10;;;;;;5116620;28;20659;-53
2023/03/02 00:04:46;;;;;;;2.90;2.63;;;15.70;49.10;;;;;;5117099;28;20191;-51
2023/03/02 00:07:16;;;;;;;3.03;2.83;;;15.60;49.00;;;;;;5117600;28;20288;-54
2023/03/02 00:09:42;;;;;;;3.47;2.70;;;15.60;49.10;;;;;;5115126;28;20173;-52
2023/03/02 00:12:07;;;;;;;3.08;2.75;;;15.60;49.10;;;;;;5116294;28;20176;-52
2023/03/02 00:14:33;;;;;;;2.72;2.53;;;15.50;49.00;;;;;;5116655;28;20200;-51
2023/03/02 00:16:58;;;;;;;3.33;2.97;;;15.60;49.00;;;;;;5116478;28;20177;-54
2023/03/02 00:19:24;;;;;;;3.38;3.08;;;15.60;49.10;;;;;;5116842;28;20205;-52
2023/03/02 00:21:49;;;;;;;2.97;2.78;;;15.50;49.00;;;;;;5116176;28;20189;-53
2023/03/02 00:24:15;;;;;;;2.70;2.45;;;15.60;49.10;;;;;;5117056;28;20576;-51
2023/03/02 00:26:40;;;;;;;2.80;2.60;;;15.50;49.00;;;;;;5116773;28;20600;-51
2023/03/02 00:29:06;;;;;;;3.10;2.80;;;15.50;49.00;;;;;;5116175;28;20539;-53
2023/03/02 00:31:31;;;;;;;3.47;3.17;;;15.50;49.00;;;;;;5116715;28;20181;-53
2023/03/02 00:33:57;;;;;;;3.80;3.42;;;15.50;49.10;;;;;;5117017;28;20172;-53
2023/03/02 00:36:22;;;;;;;3.28;3.08;;;15.50;49.00;;;;;;5116092;28;20197;-53
2023/03/02 00:38:48;;;;;;;2.65;2.45;;;15.50;49.10;;;;;;5116529;28;20569;-52
2023/03/02 00:41:14;;;;;;;3.28;2.97;;;15.50;49.10;;;;;;5116802;28;20180;-52
2023/03/02 00:43:40;;;;;;;3.05;2.85;;;15.50;49.10;;;;;;5115680;28;20723;-54
2023/03/02 00:46:13;;;;;;;3.60;3.30;;;15.50;49.10;;;;;;5116662;28;20635;-54
2023/03/02 00:48:38;;;;;;;3.30;3.00;;;15.40;49.00;;;;;;5116408;28;20217;-53
2023/03/02 00:51:04;;;;;;;3.33;3.03;;;15.40;49.00;;;;;;5116013;28;20169;-53
2023/03/02 00:53:30;;;;;;;3.60;3.30;;;15.40;49.00;;;;;;5116539;28;20217;-50
2023/03/02 00:55:56;;;;;;;3.55;3.25;;;15.40;49.10;;;;;;5116093;28;20209;-52
2023/03/02 00:58:21;;;;;;;4.03;3.47;;;15.40;49.10;;;;;;5115523;28;20165;-49
2023/03/02 01:00:47;;;;;;;3.60;3.30;;;15.40;49.10;;;;;;5116135;28;20173;-54
2023/03/02 01:03:13;;;;;;;3.50;3.20;;;15.40;49.10;;;;;;5116084;28;20173;-51
2023/03/02 01:05:38;;;;;;;3.90;3.58;;;15.40;49.00;;;;;;5115285;28;20176;-55
2023/03/02 01:08:04;;;;;;;4.30;3.90;;;15.40;49.10;;;;;;5115315;28;20173;-54
2023/03/02 01:10:32;;;;;;;3.78;3.47;;;15.40;49.10;;;;;;5115681;28;20505;-52
2023/03/02 01:12:58;;;;;;;3.90;3.60;;;15.30;49.10;;;;;;5115185;28;20556;-53
2023/03/02 01:15:24;;;;;;;3.70;3.30;;;15.30;49.10;;;;;;5115882;28;20225;-53
2023/03/02 01:17:49;;;;;;;4.13;3.78;;;15.30;49.10;;;;;;5115834;28;20181;-52
2023/03/02 01:20:15;;;;;;;3.65;3.35;;;15.30;49.10;;;;;;5115040;28;20725;-54
2023/03/02 01:22:42;;;;;;;4.45;4.07;;;15.30;49.10;;;;;;5115516;28;20548;-52
2023/03/02 01:25:08;;;;;;;4.05;3.75;;;15.30;49.10;;;;;;5115188;28;20197;-53
2023/03/02 01:27:33;;;;;;;4.30;3.85;;;15.30;49.10;;;;;;5115389;28;20207;-50
2023/03/02 01:29:59;;;;;;;4.75;4.15;;;15.30;49.10;;;;;;5115693;28;20176;-51
2023/03/02 01:32:24;;;;;;;4.32;3.92;;;15.30;49.10;;;;;;5115119;28;20169;-54
2023/03/02 01:34:50;;;;;;;3.97;3.58;;;15.30;49.10;;;;;;5115395;28;20211;-49
2023/03/02 01:37:16;;;;;;;4.07;3.78;;;15.30;49.20;;;;;;5115723;28;20532;-54
2023/03/02 01:39:41;;;;;;;4.70;4.30;;;15.30;49.20;;;;;;5114596;28;20180;-54
2023/03/02 01:42:07;;;;;;;4.63;4.22;;;15.30;49.20;;;;;;5115441;28;20632;-52
2023/03/02 01:44:37;;;;;;;4.35;3.95;;;15.20;49.10;;;;;;5115354;28;20504;-51
2023/03/02 01:47:14;;;;;;;4.10;3.70;;;15.20;49.20;;;;;;5114752;28;20192;-54
2023/03/02 01:49:49;;;;;;;4.93;4.53;;;15.20;49.10;;;;;;5115586;28;20199;-48
2023/03/02 01:52:15;;;;;;;4.63;4.22;;;15.20;49.20;;;;;;5114940;28;20180;-50
2023/03/02 01:54:41;;;;;;;4.57;4.18;;;15.20;49.20;;;;;;5115057;28;20257;-52
2023/03/02 01:57:06;;;;;;;4.60;4.20;;;15.20;49.20;;;;;;5114881;28;20516;-53
2023/03/02 01:59:32;;;;;;;4.70;4.30;;;15.20;49.20;;;;;;5114672;28;20181;-50
2023/03/02 02:02:00;;;;;;;4.75;4.35;;;15.20;49.20;;;;;;5112937;28;20226;-49
2023/03/02 02:04:26;;;;;;;5.20;4.70;;;15.20;49.20;;;;;;5115200;28;20176;-52
2023/03/02 02:06:57;;;;;;;4.82;4.43;;;15.10;49.20;;;;;;5113552;28;20569;-52
2023/03/02 02:09:23;;;;;;;5.00;4.50;;;15.10;49.20;;;;;;5112889;28;20618;-52
2023/03/02 02:11:48;;;;;;;4.70;4.30;;;15.10;49.20;;;;;;5114798;28;20165;-54
2023/03/02 02:14:14;;;;;;;5.22;4.72;;;15.10;49.20;;;;;;5114191;28;20186;-53
2023/03/02 02:16:40;;;;;;;5.35;4.88;;;15.10;49.20;;;;;;5113800;28;20181;-53
2023/03/02 02:19:27;;;;;;;4.85;4.38;;;15.10;49.20;;;;;;5114385;28;20173;-52
2023/03/02 02:21:53;;;;;;;5.55;5.05;;;15.10;49.20;;;;;;5112719;28;20539;-52
2023/03/02 02:24:29;;;;;;;5.45;4.93;;;15.10;49.20;;;;;;5114635;28;20296;-49
2023/03/02 02:26:54;;;;;;;4.85;4.45;;;15.10;49.20;;;;;;5113147;28;20645;-51
2023/03/02 02:29:33;;;;;;;5.43;4.93;;;15.10;49.20;;;;;;5112880;28;20169;-52
2023/03/02 02:32:05;;;;;;;4.72;4.32;;;15.10;49.30;;;;;;5113090;28;20219;-51
2023/03/02 02:34:52;;;;;;;4.93;4.53;;;15.10;49.20;;;;;;5113290;28;20599;-53
2023/03/02 02:37:34;;;;;;;5.55;4.93;;;15.10;49.20;;;;;;5113626;28;20169;-51
2023/03/02 02:40:00;;;;;;;5.18;4.75;;;15.00;49.20;;;;;;5114148;28;20268;-52
2023/03/02 02:42:31;;;;;;;5.45;4.95;;;15.00;49.20;;;;;;5113599;28;20205;-50
2023/03/02 02:45:00;;;;;;;5.43;4.93;;;15.00;49.20;;;;;;5113053;28;20527;-54
2023/03/02 02:47:25;;;;;;;5.45;4.95;;;15.00;49.20;;;;;;5114294;28;20694;-50
2023/03/02 02:49:52;;;;;;;5.47;4.97;;;15.00;49.20;;;;;;5112025;28;20271;-52
2023/03/02 02:52:18;;;;;;;5.38;4.93;;;15.00;49.30;;;;;;5112859;28;20176;-50
2023/03/02 02:54:45;;;;;;;5.15;4.65;;;15.00;49.20;;;;;;5112763;28;20209;-53
2023/03/02 02:57:11;;;;;;;5.82;5.32;;;15.00;49.30;;;;;;5112194;28;20169;-54
2023/03/02 02:59:57;;;;;;;5.40;4.97;;;15.00;49.20;;;;;;5113046;28;20601;-53
2023/03/02 03:02:26;;;;;;;5.25;4.85;;;15.00;49.30;;;;;;5113737;28;20172;-54
2023/03/02 03:05:01;;;;;;;5.55;5.05;;;14.90;49.30;;;;;;5112919;28;20205;-52
2023/03/02 03:07:26;;;;;;;5.55;5.05;;;14.90;49.30;;;;;;5113816;28;20176;-55
2023/03/02 03:10:21;;;;;;;5.95;5.35;;;14.90;49.30;;;;;;5113505;28;20177;-53
2023/03/02 03:12:46;;;;;;;6.53;5.85;;;14.90;49.30;;;;;;5110867;28;20708;-51
2023/03/02 03:15:12;;;;;;;6.05;5.45;;;14.90;49.30;;;;;;5113741;28;20201;-52
2023/03/02 03:17:37;;;;;;;6.18;5.68;;;14.90;49.40;;;;;;5111960;28;20173;-54
2023/03/02 03:20:09;;;;;;;5.68;5.18;;;14.90;49.40;;;;;;5113256;28;20216;-55
2023/03/02 03:22:38;;;;;;;6.38;5.78;;;14.90;49.40;;;;;;5113629;28;20169;-54
2023/03/02 03:25:04;;;;;;;6.40;5.80;;;14.90;49.30;;;;;;5112728;28;20177;-53
2023/03/02 03:27:29;;;;;;;6.47;5.88;;;14.90;49.30;;;;;;5113612;28;20313;-53
2023/03/02 03:29:55;;;;;;;5.88;5.38;;;14.90;49.30;;;;;;5113234;28;20177;-54
2023/03/02 03:32:20;;;;;;;6.47;5.88;;;14.80;49.30;;;;;;5112069;28;20578;-53
2023/03/02 03:34:46;;;;;;;5.88;5.38;;;14.80;49.30;;;;;;5112992;28;20287;-53
2023/03/02 03:37:14;;;;;;;5.82;5.32;;;14.80;49.30;;;;;;5113529;28;20177;-55
2023/03/02 03:39:40;;;;;;;5.97;5.47;;;14.80;49.30;;;;;;5112978;28;20169;-55
2023/03/02 03:42:06;;;;;;;5.85;5.35;;;14.80;49.30;;;;;;5113180;28;20173;-51
2023/03/02 03:44:31;;;;;;;6.22;5.72;;;14.80;49.40;;;;;;5113452;28;20177;-54
2023/03/02 03:46:57;;;;;;;5.97;5.47;;;14.80;49.30;;;;;;5112366;28;20532;-53
2023/03/02 03:49:22;;;;;;;6.78;6.18;;;14.80;49.40;;;;;;5113230;28;20213;-49
2023/03/02 03:51:48;;;;;;;6.88;6.28;;;14.80;49.30;;;;;;5112973;28;20176;-51
2023/03/02 03:54:13;;;;;;;5.93;5.43;;;14.80;49.40;;;;;;5112547;28;20177;-53
2023/03/02 03:56:41;;;;;;;6.85;6.15;;;14.80;49.40;;;;;;5113175;28;20651;-50
2023/03/02 03:59:08;;;;;;;6.93;6.22;;;14.80;49.40;;;;;;5113348;28;20198;-50
2023/03/02 04:01:55;;;;;;;6.53;5.93;;;14.80;49.40;;;;;;5112417;28;20656;-52
2023/03/02 04:04:29;;;;;;;6.15;5.63;;;14.70;49.40;;;;;;5113363;28;20191;-49
2023/03/02 04:06:54;;;;;;;6.50;5.90;;;14.70;49.40;;;;;;5112280;28;20256;-52
2023/03/02 04:09:21;;;;;;;6.85;6.18;;;14.70;49.40;;;;;;5113159;28;20272;-50
2023/03/02 04:11:47;;;;;;;6.35;5.78;;;14.70;49.30;;;;;;5112877;28;20173;-54
2023/03/02 04:14:13;;;;;;;6.38;5.80;;;14.60;49.40;;;;;;5112301;28;20173;-52
2023/03/02 04:16:39;;;;;;;6.50;5.85;;;14.70;49.40;;;;;;5113218;28;20615;-53
2023/03/02 04:19:08;;;;;;;7.78;7.07;;;14.70;49.40;;;;;;5112681;28;20201;-51
2023/03/02 04:21:35;;;;;;;7.25;6.55;;;14.70;49.50;;;;;;5112551;28;20181;-53
2023/03/02 04:24:00;;;;;;;6.60;6.00;;;14.70;49.40;;;;;;5112772;28;20177;-53
2023/03/02 04:26:26;;;;;;;6.47;5.88;;;14.70;49.50;;;;;;5113046;28;20541;-53
2023/03/02 04:28:53;;;;;;;6.53;5.93;;;14.60;49.30;;;;;;5111866;28;20292;-52
2023/03/02 04:31:18;;;;;;;7.20;6.50;;;14.60;49.40;;;;;;5113118;28;20212;-53
2023/03/02 04:33:44;;;;;;;6.80;6.18;;;14.60;49.40;;;;;;5112831;28;20651;-54
2023/03/02 04:36:09;;;;;;;6.97;6.35;;;14.60;49.40;;;;;;5112129;28;20694;-54
2023/03/02 04:38:35;;;;;;;7.18;6.57;;;14.60;49.40;;;;;;5112977;28;20632;-51
2023/03/02 04:41:01;;;;;;;6.97;6.28;;;14.60;49.40;;;;;;5112563;28;20596;-52
2023/03/02 04:43:26;;;;;;;7.40;6.70;;;14.60;49.50;;;;;;5113670;28;20226;-53
2023/03/02 04:45:52;;;;;;;6.70;6.10;;;14.60;49.40;;;;;;5116527;28;20173;-52
2023/03/02 04:48:18;;;;;;;6.60;6.00;;;14.60;49.50;;;;;;5116968;28;20218;-52
2023/03/02 04:50:43;;;;;;;7.40;6.70;;;14.60;49.50;;;;;;5115418;28;20173;-53
2023/03/02 04:53:10;;;;;;;7.20;6.50;;;14.60;49.40;;;;;;5116614;27;20181;-53
2023/03/02 04:55:36;;;;;;;7.88;6.88;;;14.60;49.50;;;;;;5116284;28;20659;-52
2023/03/02 04:58:02;;;;;;;6.70;6.10;;;14.50;49.40;;;;;;5115278;28;20184;-50
2023/03/02 05:00:27;;;;;;;7.38;6.63;;;14.60;49.40;;;;;;5116532;28;20573;-51
2023/03/02 05:02:53;;;;;;;7.88;7.18;;;14.50;49.40;;;;;;5116195;28;20224;-53
2023/03/02 05:05:21;;;;;;;7.07;6.40;;;14.60;49.40;;;;;;5115734;28;20177;-55
2023/03/02 05:07:47;;;;;;;7.22;6.57;;;14.60;49.50;;;;;;5115737;28;20173;-52
2023/03/02 05:10:13;;;;;;;7.43;6.72;;;14.50;49.40;;;;;;5115408;28;20177;-50
2023/03/02 05:12:54;;;;;;;7.28;6.57;;;14.50;49.50;;;;;;5116078;28;20205;-54
2023/03/02 05:15:21;;;;;;;7.15;6.45;;;14.50;49.50;;;;;;5116140;28;20262;-51
2023/03/02 05:17:46;;;;;;;7.38;6.70;;;14.50;50.10;;;;;;5115136;28;20177;-51
2023/03/02 05:20:12;;;;;;;7.65;6.95;;;14.50;49.50;;;;;;5115784;28;20336;-50
2023/03/02 05:22:37;;;;;;;7.45;6.78;;;14.50;49.50;;;;;;5115750;28;20716;-52
2023/03/02 05:25:04;;;;;;;7.43;6.72;;;14.50;49.50;;;;;;5114772;28;20167;-54
2023/03/02 05:27:29;;;;;;;7.18;6.47;;;14.50;49.60;;;;;;5116030;28;20215;-49
2023/03/02 05:29:55;;;;;;;8.10;7.30;;;14.40;49.50;;;;;;5115673;28;20209;-53
2023/03/02 05:32:20;;;;;;;7.40;6.70;;;14.40;49.50;;;;;;5114937;28;20265;-53
2023/03/02 05:34:46;;;;;;;7.70;6.80;;;14.40;49.50;;;;;;5115348;28;20204;-54
2023/03/02 05:37:11;;;;;;;6.95;6.25;;;14.40;49.50;;;;;;5115675;28;20170;-54
2023/03/02 05:39:38;;;;;;;7.47;6.78;;;14.40;49.50;;;;;;5114708;28;20184;-50
2023/03/02 05:42:03;;;;;;;7.82;7.03;;;14.40;49.50;;;;;;5115425;28;20223;-55
2023/03/02 05:44:29;;;;;;;7.93;7.13;;;14.40;49.50;;;;;;5115641;28;20184;-52
2023/03/02 05:46:54;;;;;;;7.03;6.35;;;14.40;49.50;;;;;;5114678;28;20256;-55
2023/03/02 05:49:20;;;;;;;6.93;6.30;;;14.40;49.50;;;;;;5115816;28;20265;-52
2023/03/02 05:51:45;;;;;;;8.25;7.45;;;14.40;49.50;;;;;;5115193;28;20264;-54
2023/03/02 05:54:11;;;;;;;7.55;6.85;;;14.30;49.50;;;;;;5114031;28;20178;-54
2023/03/02 05:56:37;;;;;;;8.55;7.75;;;14.40;49.50;;;;;;5115073;28;20291;-52
2023/03/02 05:59:02;;;;;;;7.65;6.85;;;14.40;49.50;;;;;;5114810;28;20648;-54
2023/03/02 06:01:28;;;;;;;7.72;6.97;;;14.40;49.50;;;;;;5114692;28;20237;-55
2023/03/02 06:03:54;;;;;;;8.18;7.38;;;14.40;49.60;;;;;;5114986;28;20530;-55
2023/03/02 06:06:19;;;;;;;8.32;7.53;;;14.40;49.60;;;;;;5114404;28;20181;-53
2023/03/02 06:08:45;;;;;;;6.18;5.55;;;14.40;49.50;;;;;;5114936;28;20173;-53
2023/03/02 06:11:11;;;;;;;6.97;6.38;;;14.60;50.00;;;;;;5114870;28;20177;-49
2023/03/02 06:13:36;;;;;;;6.85;6.20;;;14.70;49.20;;;;;;5114417;28;20609;-55
2023/03/02 06:16:02;;;;;;;7.13;6.43;;;14.80;49.10;;;;;;5114590;28;20677;-53
2023/03/02 06:18:27;;;;;;;6.85;6.25;;;14.90;48.90;;;;;;5115075;28;20176;-49
2023/03/02 06:20:53;;;;;;;5.90;5.30;;;15.20;48.60;;;;;;5113573;28;20235;-54
2023/03/02 06:23:19;;;;;;;6.35;5.75;;;15.30;48.40;;;;;;5114578;28;20218;-54
2023/03/02 06:25:47;;;;;;;6.45;5.85;;;15.50;48.20;;;;;;5114258;28;20195;-53
2023/03/02 06:28:14;;;;;;;6.25;5.65;;;15.70;48.00;;;;;;5114090;28;20173;-54
2023/03/02 06:30:40;;;;;;;6.53;5.88;;;15.80;47.80;;;;;;5114708;28;20173;-54
2023/03/02 06:33:06;;;;;;;5.88;5.35;;;15.90;47.60;;;;;;5114474;28;20174;-55
2023/03/02 06:35:32;;;;;;;6.30;5.70;;;15.90;47.50;;;;;;5113629;28;20211;-55
2023/03/02 06:37:57;;;;;;;6.28;5.53;;;16.00;47.50;;;;;;5114331;28;20203;-55
2023/03/02 06:40:23;;;;;;;6.22;5.45;;;16.00;47.40;;;;;;5114472;28;20268;-55
2023/03/02 06:42:48;;;;;;;6.10;5.50;;;16.10;47.40;;;;;;5113294;28;20169;-54
2023/03/02 06:45:14;;;;;;;6.20;5.60;;;16.10;47.30;;;;;;5114546;28;20218;-55
2023/03/02 06:47:39;;;;;;;6.75;6.05;;;16.10;47.30;;;;;;5114340;28;20222;-53
2023/03/02 06:50:05;;;;;;;5.57;5.10;;;16.20;47.30;;;;;;5113204;28;20176;-54
2023/03/02 06:52:31;;;;;;;5.55;5.00;;;16.20;47.10;;;;;;5114016;28;20537;-52
2023/03/02 06:54:56;;;;;;;6.22;5.50;;;16.20;47.20;;;;;;5113589;28;20204;-53
2023/03/02 06:57:22;;;;;;;6.28;5.70;;;16.30;47.20;;;;;;5113377;28;20184;-53
2023/03/02 06:59:47;;;;;;;6.90;6.30;;;16.40;47.20;;;;;;5113964;28;20178;-55
2023/03/02 07:02:13;;;;;;;5.75;5.25;;;16.40;47.20;;;;;;5113997;28;20169;-55
2023/03/02 07:04:38;;;;;;;5.88;5.38;;;16.40;47.20;;;;;;5113172;28;20695;-55
2023/03/02 07:07:04;;;;;;;6.03;5.53;;;16.60;47.00;;;;;;5113526;28;20302;-55
2023/03/02 07:09:32;;;;;;;5.88;5.35;;;16.70;46.80;;;;;;5114052;28;20177;-54
2023/03/02 07:11:58;;;;;;;5.63;5.13;;;16.60;47.30;;;;;;5113024;28;20628;-50
2023/03/02 07:14:24;;;;;;;6.13;5.53;;;16.60;46.90;;;;;;5113775;28;20647;-55
2023/03/02 07:16:49;;;;;;;6.32;5.72;;;16.50;47.00;;;;;;5112766;28;20188;-55
2023/03/02 07:19:15;;;;;;;6.05;5.45;;;16.60;47.10;;;;;;5113686;28;20175;-54
2023/03/02 07:21:40;;;;;;;6.38;5.78;;;16.60;46.90;;;;;;5113589;28;20176;-51
2023/03/02 07:24:06;;;;;;;6.32;5.72;;;16.60;47.00;;;;;;5112658;28;20558;-50
2023/03/02 07:26:31;;;;;;;5.90;5.30;;;16.50;47.00;;;;;;5113823;28;20686;-49
2023/03/02 07:28:58;;;;;;;6.30;5.70;;;16.40;47.10;;;;;;5113248;28;20173;-54
2023/03/02 07:31:24;;;;;;;5.60;5.10;;;16.40;47.20;;;;;;5113033;28;20212;-54
2023/03/02 07:33:50;;;;;;;5.70;5.07;;;16.40;47.30;;;;;;5113203;28;20263;-50
2023/03/02 07:36:15;;;;;;;6.18;5.50;;;16.40;47.40;;;;;;5113394;28;20739;-53
2023/03/02 07:38:41;;;;;;;5.35;4.88;;;16.40;47.30;;;;;;5112643;28;20663;-54
2023/03/02 07:41:07;;;;;;;6.97;6.00;;;16.60;47.30;;;;;;5113343;28;20261;-63
2023/03/02 07:43:35;;;;;;;6.03;5.45;;;16.80;47.20;;;;;;5112819;28;20623;-63
2023/03/02 07:46:01;;;;;;;7.95;5.88;;;17.00;47.10;;;;;;5111834;28;20606;-63
2023/03/02 07:48:26;;;;;;;6.18;5.57;;;17.30;46.70;;;;;;5112785;28;20169;-66
2023/03/02 07:50:59;;;;;;;8.73;5.63;;;17.50;46.30;;;;;;5112264;28;20233;-65
2023/03/02 07:53:25;;;;;;;6.28;5.55;;;17.60;46.30;;;;;;5110988;28;20256;-66
2023/03/02 07:55:51;;;;;;;7.57;6.18;;;17.60;46.40;;;;;;5112302;28;20303;-63
2023/03/02 07:58:16;;;;;;;6.78;6.07;;;17.70;46.40;;;;;;5112658;28;20181;-68
2023/03/02 08:00:42;;;;;;;13.30;6.05;;;17.70;46.50;;;;;;5111738;28;20177;-65
2023/03/02 08:03:07;;;;;;;9.18;6.13;;;17.80;46.50;;;;;;5112735;28;20251;-65
2023/03/02 08:05:33;;;;;;;7.15;5.90;;;17.80;46.50;;;;;;5112342;28;20569;-62
2023/03/02 08:07:58;;;;;;;7.75;6.03;;;17.80;46.40;;;;;;5111529;28;20714;-62
2023/03/02 08:10:24;;;;;;;7.53;5.75;;;17.90;46.50;;;;;;5112495;28;20267;-63
2023/03/02 08:12:49;;;;;;;6.38;5.63;;;17.80;46.50;;;;;;5112177;28;20272;-63
2023/03/02 08:15:15;;;;;;;6.65;6.03;;;17.80;46.60;;;;;;5111643;28;20211;-63
2023/03/02 08:17:40;;;;;;;7.78;6.05;;;17.80;46.70;;;;;;5112924;28;20260;-63
2023/03/02 08:20:07;;;;;;;7.55;6.40;;;17.70;46.80;;;;;;5115268;28;20324;-62
2023/03/02 08:22:32;;;;;;;7.68;6.30;;;17.80;46.80;;;;;;5116747;28;20306;-63
2023/03/02 08:24:58;;;;;;;8.07;6.18;;;17.70;46.90;;;;;;5116377;28;20315;-63
2023/03/02 08:27:23;;;;;;;8.73;5.95;;;17.70;47.00;;;;;;5115693;28;20589;-64
2023/03/02 08:29:49;;;;;;;7.35;5.68;;;17.60;47.10;;;;;;5115970;28;20650;-64
2023/03/02 08:32:14;;;;;;;7.20;6.22;;;17.60;47.30;;;;;;5116164;28;20207;-64
2023/03/02 08:34:40;;;;;;;7.88;6.60;;;17.50;47.40;;;;;;5115370;28;20209;-65
2023/03/02 08:37:05;;;;;;;7.80;6.55;;;17.40;47.50;;;;;;5115815;28;20281;-63
2023/03/02 08:39:31;;;;;;;6.85;5.78;;;17.40;47.60;;;;;;5116071;28;20172;-63
2023/03/02 08:41:57;;;;;;;9.02;5.53;;;17.30;47.60;;;;;;5115035;28;20181;-63
2023/03/02 08:44:23;;;;;;;6.78;6.13;;;17.30;47.80;;;;;;5116280;28;20181;-63
2023/03/02 08:46:49;;;;;;;6.32;5.72;;;17.20;47.90;;;;;;5115816;28;20183;-62
2023/03/02 08:49:15;;;;;;;6.82;6.13;;;17.20;48.00;;;;;;5115274;28;20169;-62
2023/03/02 08:51:40;;;;;;;8.60;6.35;;;17.10;48.00;;;;;;5114876;28;20169;-62
2023/03/02 08:54:06;;;;;;;8.25;6.18;;;17.10;48.20;;;;;;5115779;28;20544;-63
2023/03/02 08:56:33;;;;;;;6.97;6.13;;;17.10;48.30;;;;;;5114920;28;20579;-64
2023/03/02 08:59:03;;;;;;;7.00;6.28;;;17.00;48.30;;;;;;5115451;28;20183;-64
2023/03/02 09:01:30;;;;;;;6.63;5.93;;;17.10;48.40;;;;;;5115745;27;20180;-64
2023/03/02 09:03:58;;;;;;;6.90;6.20;;;17.10;48.40;;;;;;5114755;28;20177;-64
2023/03/02 09:06:23;;;;;;;8.40;6.47;;;17.10;48.20;;;;;;5115889;28;20638;-63
2023/03/02 09:08:49;;;;;;;7.35;6.07;;;17.10;48.20;;;;;;5115772;28;20185;-63
2023/03/02 09:11:15;;;;;;;7.60;6.80;;;17.10;48.20;;;;;;5115251;28;20651;-63
2023/03/02 09:13:40;;;;;;;6.55;5.82;;;17.10;48.20;;;;;;5115903;28;20260;-63
2023/03/02 09:16:07;;;;;;;8.77;6.55;;;17.10;48.30;;;;;;5115470;28;20231;-63
2023/03/02 09:18:33;;;;;;;6.50;5.63;;;17.00;48.30;;;;;;5114970;28;20704;-63
2023/03/02 09:20:58;;;;;;;7.47;6.32;;;17.00;48.30;;;;;;5115277;28;20225;-63
2023/03/02 09:23:24;;;;;;;6.53;5.55;;;17.00;48.30;;;;;;5115194;28;20169;-63
2023/03/02 09:25:50;;;;;;;8.75;6.35;;;17.00;48.40;;;;;;5115472;28;20181;-63
2023/03/02 09:28:16;;;;;;;7.38;6.25;;;17.00;48.50;;;;;;5115608;28;20732;-64
2023/03/02 09:30:46;;;;;;;6.68;5.95;;;17.00;48.40;;;;;;5113755;28;20631;-64
2023/03/02 09:33:11;;;;;;;6.80;6.10;;;17.00;48.40;;;;;;5115541;28;20684;-65
2023/03/02 09:35:37;;;;;;;7.15;6.20;;;17.10;48.50;;;;;;5115381;28;20200;-64
2023/03/02 09:38:03;;;;;;;7.70;6.63;;;17.10;48.40;;;;;;5114233;28;20314;-63
2023/03/02 09:40:29;;;;;;;8.63;6.45;;;17.10;48.40;;;;;;5115431;28;20169;-63
2023/03/02 09:43:12;;;;;;;8.57;7.07;;;17.10;48.40;;;;;;5096660;28;20170;-63
2023/03/02 09:45:51;;;;;;;8.85;6.95;;;17.10;48.40;;;;;;5114274;28;20192;-62
2023/03/02 09:48:40;;;;;;;7.85;6.88;;;17.10;48.40;;;;;;5113990;28;20646;-63
2023/03/02 09:51:19;;;;;;;6.93;6.03;;;17.10;48.40;;;;;;5083268;28;20545;-62
2023/03/02 09:54:07;;;;;;;7.07;5.63;;;17.10;48.40;;;;;;5114071;28;20218;-63
2023/03/02 09:56:36;;;;;;;7.75;5.97;;;17.10;48.40;;;;;;5114009;28;20270;-63
2023/03/02 09:59:10;;;;;;;6.88;6.10;;;17.10;48.40;;;;;;5114193;28;20269;-64
2023/03/02 10:01:46;;;;;;;6.55;5.75;;;17.10;48.40;;;;;;5097704;28;20226;-64
2023/03/02 10:04:25;;;;;;;7.63;6.25;;;17.10;48.40;;;;;;5096725;28;20236;-63
2023/03/02 10:06:55;;;;;;;6.97;6.10;;;17.10;48.40;;;;;;5112706;28;20259;-63
2023/03/02 10:09:20;;;;;;;7.40;6.38;;;17.10;48.40;;;;;;5114842;28;20173;-63
2023/03/02 10:12:00;;;;;;;7.43;5.80;;;17.10;49.00;;;;;;5114351;28;20650;-63
2023/03/02 10:14:40;;;;;;;7.40;6.32;;;17.10;48.40;;;;;;5096784;28;20219;-63
2023/03/02 10:17:28;;;;;;;8.13;6.72;;;17.10;48.40;;;;;;5096687;28;20587;-63
2023/03/02 10:20:02;;;;;;;7.88;6.43;;;17.10;48.40;;;;;;5113380;28;20225;-63
2023/03/02 10:22:31;;;;;;;8.00;6.25;;;17.10;48.40;;;;;;5113395;28;20196;-63
2023/03/02 10:25:15;;;;;;;8.13;6.50;;;17.10;48.40;;;;;;5096118;28;20648;-63
2023/03/02 10:27:41;;;;;;;7.15;6.15;;;17.10;48.40;;;;;;5097329;28;20726;-63
2023/03/02 10:30:32;;;;;;;6.90;6.20;;;17.10;48.40;;;;;;5114420;28;20173;-63
2023/03/02 10:33:00;;;;;;;6.65;5.82;;;17.20;48.40;;;;;;5103043;28;20181;-64
2023/03/02 10:35:26;;;;;;;6.78;6.00;;;17.20;48.40;;;;;;5095399;28;20289;-64
2023/03/02 10:38:13;;;;;;;7.32;5.90;;;17.10;48.40;;;;;;5112735;28;20204;-63
2023/03/02 10:40:45;;;;;;;7.70;6.28;;;17.20;48.40;;;;;;5112109;28;20181;-63
2023/03/02 10:43:26;;;;;;;6.50;5.07;;;17.20;48.40;;;;;;5114313;28;20176;-63
2023/03/02 10:46:08;;;;;;;8.35;6.45;;;17.20;48.40;;;;;;5112693;28;20222;-63
2023/03/02 10:48:48;;;;;;;7.13;6.07;;;17.20;48.40;;;;;;5113629;28;20207;-63
2023/03/02 10:51:24;;;;;;;7.50;6.43;;;17.20;48.40;;;;;;5113933;28;20521;-62
2023/03/02 10:54:00;;;;;;;6.00;5.40;;;17.20;48.40;;;;;;5113703;28;20169;-63
2023/03/02 10:56:26;;;;;;;7.20;6.10;;;17.20;48.40;;;;;;5112963;28;20205;-63
2023/03/02 10:58:51;;;;;;;7.00;5.78;;;17.20;48.40;;;;;;5112531;28;20238;-64
2023/03/02 11:01:17;;;;;;;7.35;5.53;;;17.20;48.40;;;;;;5112882;28;20579;-64
2023/03/02 11:03:54;;;;;;;6.13;5.53;;;17.20;48.40;;;;;;5113156;28;20204;-64
2023/03/02 11:06:21;;;;;;;6.35;5.32;;;17.20;48.40;;;;;;5113912;27;20173;-63
2023/03/02 11:08:57;;;;;;;5.85;5.25;;;17.30;48.40;;;;;;5112534;28;20196;-63
2023/03/02 11:11:23;;;;;;;7.18;6.05;;;17.30;48.40;;;;;;5112668;28;20208;-63
2023/03/02 11:13:49;;;;;;;7.72;6.60;;;17.20;48.40;;;;;;5113482;28;20204;-63
2023/03/02 11:16:17;;;;;;;7.18;5.65;;;17.30;48.40;;;;;;5112723;28;20305;-63
2023/03/02 11:18:49;;;;;;;6.72;5.63;;;17.30;48.50;;;;;;5113280;28;20174;-63
2023/03/02 11:21:20;;;;;;;6.53;5.63;;;17.30;48.40;;;;;;5095355;28;20318;-63
2023/03/02 11:24:09;;;;;;;5.90;5.30;;;17.30;48.40;;;;;;5095095;28;20183;-63
2023/03/02 11:26:46;;;;;;;6.50;5.78;;;17.30;48.40;;;;;;5112340;28;20225;-63
2023/03/02 11:29:32;;;;;;;6.15;5.55;;;17.30;48.40;;;;;;5112326;28;20175;-63
2023/03/02 11:32:07;;;;;;;7.00;5.65;;;17.30;48.40;;;;;;5112259;28;20508;-65
2023/03/02 11:34:57;;;;;;;7.10;5.72;;;17.30;48.40;;;;;;5113191;28;20173;-64
2023/03/02 11:37:23;;;;;;;6.57;5.53;;;17.30;48.40;;;;;;5111603;28;20632;-63
2023/03/02 11:39:48;;;;;;;5.97;5.35;;;17.30;48.40;;;;;;5111803;28;20607;-63
2023/03/02 11:42:24;;;;;;;5.65;5.07;;;17.30;48.40;;;;;;5113168;28;20180;-63
2023/03/02 11:44:49;;;;;;;6.82;5.65;;;17.40;48.40;;;;;;5112360;28;20184;-63
2023/03/02 11:47:15;;;;;;;5.65;5.15;;;17.30;48.40;;;;;;5113299;28;20173;-63
2023/03/02 11:49:54;;;;;;;5.50;5.00;;;17.40;48.40;;;;;;5094969;28;20235;-63
2023/03/02 11:52:21;;;;;;;6.00;5.40;;;17.40;48.40;;;;;;5111851;28;20173;-62
2023/03/02 11:54:59;;;;;;;6.05;5.15;;;17.40;48.30;;;;;;5111280;28;20188;-64
2023/03/02 11:57:30;;;;;;;5.80;5.20;;;17.40;48.30;;;;;;5112152;28;20192;-64
2023/03/02 11:59:55;;;;;;;5.45;4.95;;;17.40;48.30;;;;;;5110745;28;20222;-64
2023/03/02 12:02:21;;;;;;;5.43;4.93;;;17.40;48.40;;;;;;5111804;28;20185;-64
2023/03/02 12:04:46;;;;;;;7.03;5.38;;;17.40;48.40;;;;;;5094615;28;20179;-63
2023/03/02 12:07:30;;;;;;;5.18;4.60;;;17.40;48.40;;;;;;5112083;28;20173;-62
2023/03/02 12:10:07;;;;;;;5.68;5.18;;;17.50;48.40;;;;;;5112693;28;20169;-63
2023/03/02 12:12:39;;;;;;;5.35;4.82;;;17.50;48.40;;;;;;5112215;28;20181;-63
2023/03/02 12:15:27;;;;;;;5.35;4.85;;;17.50;48.40;;;;;;5112729;28;20205;-63
2023/03/02 12:17:52;;;;;;;5.85;5.25;;;17.40;48.40;;;;;;5111928;28;20185;-64
2023/03/02 12:20:23;;;;;;;5.18;4.68;;;17.40;48.40;;;;;;5112070;28;20586;-63
2023/03/02 12:22:49;;;;;;;6.03;5.30;;;17.40;48.50;;;;;;5112721;28;20256;-63
2023/03/02 12:25:20;;;;;;;5.53;4.57;;;17.40;47.90;;;;;;5112861;28;20197;-63
2023/03/02 12:27:47;;;;;;;5.82;4.50;;;17.40;48.40;;;;;;5111743;28;20172;-64
2023/03/02 12:30:22;;;;;;;5.63;5.05;;;17.40;48.50;;;;;;5112917;28;20177;-64
2023/03/02 12:33:09;;;;;;;5.72;4.55;;;17.40;48.50;;;;;;5112430;28;20646;-64
2023/03/02 12:35:35;;;;;;;4.97;4.47;;;17.40;48.60;;;;;;5112418;28;20283;-64
2023/03/02 12:38:05;;;;;;;5.13;4.60;;;17.40;48.50;;;;;;5112406;28;20655;-63
2023/03/02 12:41:16;;;;;;;5.07;4.57;;;17.40;49.20;;;;;;5111967;28;20220;-63
2023/03/02 12:44:06;;;;;;;5.38;4.88;;;17.30;48.50;;;;;;5088645;28;20234;-63
2023/03/02 12:46:33;;;;;;;5.25;4.70;;;17.30;48.60;;;;;;5111446;28;20635;-63
2023/03/02 12:49:26;;;;;;;5.13;4.22;;;17.30;48.60;;;;;;5111677;28;20189;-63
2023/03/02 12:51:59;;;;;;;4.88;4.22;;;17.30;48.60;;;;;;5112302;28;20620;-63
2023/03/02 12:54:29;;;;;;;4.72;4.18;;;17.30;48.60;;;;;;5111707;28;20617;-63
2023/03/02 12:57:16;;;;;;;5.38;4.55;;;17.30;48.50;;;;;;5112230;28;20213;-63